Time;durP1;ratioP1;P1;durP2;ratioP2;P2;SDS_P1;SDS_P2;PMS_P1;PMS_P2;Temp;Humidity;BMP_temperature;BMP_pressure;BME280_temperature;BME280_humidity;BME280_pressure;Samples;Min_cycle;Max_cycle;Signal;HPM_P1;HPM_P2
2024/01/29 00:02:09;;;;;;;43.50;25.40;;;;;;;1.45;100.00;102045.80;178545;1256;45977;-84
2024/01/29 00:06:13;;;;;;;36.90;19.50;;;;;;;1.34;100.00;102041.95;177485;1256;57263;-84
2024/01/29 00:10:17;;;;;;;47.90;23.60;;;;;;;1.20;100.00;102040.77;177547;1256;46102;-85
2024/01/29 00:14:20;;;;;;;40.20;21.90;;;;;;;1.08;100.00;102037.42;178014;1255;45904;-85
2024/01/29 00:18:23;;;;;;;42.20;22.20;;;;;;;1.07;100.00;102038.84;178050;1256;46141;-84
2024/01/29 00:22:27;;;;;;;39.70;23.40;;;;;;;1.08;100.00;102039.34;177736;1257;45865;-84
2024/01/29 00:26:31;;;;;;;40.20;26.50;;;;;;;1.11;100.00;102036.15;178188;1256;59508;-85
2024/01/29 00:30:34;;;;;;;43.00;27.40;;;;;;;1.15;100.00;102035.40;177564;1256;46116;-84
2024/01/29 00:34:39;;;;;;;53.70;25.80;;;;;;;1.16;100.00;102034.68;178344;1256;46024;-85
2024/01/29 00:38:42;;;;;;;53.60;27.10;;;;;;;1.17;100.00;102033.45;177894;1256;44160;-85
2024/01/29 00:42:46;;;;;;;43.00;24.20;;;;;;;1.19;100.00;102032.56;177983;1256;46015;-84
2024/01/29 00:46:49;;;;;;;32.80;22.20;;;;;;;1.20;100.00;102030.27;178569;1256;58388;-84
2024/01/29 00:50:52;;;;;;;37.40;23.40;;;;;;;1.20;100.00;102031.84;178856;1256;45940;-85
2024/01/29 00:54:56;;;;;;;40.40;24.80;;;;;;;1.20;100.00;102029.04;177802;1256;46136;-85
2024/01/29 00:58:59;;;;;;;41.00;24.30;;;;;;;1.19;100.00;102027.14;177961;1257;46219;-84
2024/01/29 01:03:03;;;;;;;53.60;24.70;;;;;;;1.20;100.00;102026.77;177988;1256;46071;-85
2024/01/29 01:07:06;;;;;;;40.90;23.50;;;;;;;1.17;100.00;102021.39;177652;1256;59547;-83
2024/01/29 01:11:10;;;;;;;47.50;26.60;;;;;;;1.17;100.00;102023.32;178113;1256;44220;-85
2024/01/29 01:15:14;;;;;;;47.80;26.50;;;;;;;1.17;100.00;102017.90;178114;1256;44532;-83
2024/01/29 01:19:17;;;;;;;47.30;24.30;;;;;;;1.17;100.00;102019.30;177885;1256;46131;-82
2024/01/29 01:23:21;;;;;;;41.30;21.80;;;;;;;1.19;100.00;102014.56;178089;1256;46172;-83
2024/01/29 01:27:24;;;;;;;59.40;29.00;;;;;;;1.22;100.00;102016.44;178303;1256;58246;-85
2024/01/29 01:31:27;;;;;;;44.50;26.40;;;;;;;1.22;100.00;102013.81;178556;1256;46190;-84
2024/01/29 01:35:31;;;;;;;41.60;24.70;;;;;;;1.20;100.00;102012.45;178268;1256;46117;-85
2024/01/29 01:39:34;;;;;;;41.10;21.60;;;;;;;1.18;100.00;102009.49;178194;1257;46449;-85
2024/01/29 01:43:37;;;;;;;36.60;23.20;;;;;;;1.14;100.00;102000.98;178284;1256;45991;-84
2024/01/29 01:47:40;;;;;;;49.50;24.40;;;;;;;1.10;100.00;101995.81;177932;1256;58129;-85
2024/01/29 01:51:44;;;;;;;51.60;27.80;;;;;;;1.07;100.00;101991.31;178293;1257;45117;-85
2024/01/29 01:55:48;;;;;;;48.50;24.30;;;;;;;1.04;100.00;101993.62;177847;1256;44183;-86
2024/01/29 01:59:51;;;;;;;39.30;24.10;;;;;;;0.96;100.00;101989.88;178087;1256;46131;-84
2024/01/29 02:03:55;;;;;;;43.70;24.10;;;;;;;0.90;100.00;101986.50;178573;1256;46004;-86
2024/01/29 02:07:58;;;;;;;37.70;23.60;;;;;;;0.75;100.00;101991.75;177914;1256;58667;-84
2024/01/29 02:12:02;;;;;;;41.90;26.20;;;;;;;0.70;100.00;101984.83;178085;1257;45933;-86
2024/01/29 02:16:05;;;;;;;51.00;25.40;;;;;;;0.73;100.00;101983.05;178511;1256;46023;-82
2024/01/29 02:20:09;;;;;;;42.80;24.60;;;;;;;0.73;100.00;101979.90;178470;1256;44344;-85
2024/01/29 02:24:13;;;;;;;47.10;26.10;;;;;;;0.76;100.00;101973.74;178133;1259;45986;-85
2024/01/29 02:28:16;;;;;;;45.50;25.50;;;;;;;0.82;100.00;101967.92;177632;1256;58267;-84
2024/01/29 02:32:19;;;;;;;38.60;22.50;;;;;;;0.89;100.00;101970.08;178115;1256;45992;-85
2024/01/29 02:36:23;;;;;;;47.00;27.20;;;;;;;0.93;100.00;101964.42;177980;1255;46024;-85
2024/01/29 02:40:26;;;;;;;42.20;23.20;;;;;;;0.91;100.00;101960.80;177853;1256;46117;-83
2024/01/29 02:44:29;;;;;;;41.90;26.60;;;;;;;0.88;100.00;101962.94;177807;1256;46114;-85
2024/01/29 02:48:32;;;;;;;39.00;22.00;;;;;;;0.84;100.00;101961.77;178668;1256;58229;-85
2024/01/29 02:52:36;;;;;;;46.40;21.70;;;;;;;0.80;100.00;101959.89;177631;1257;46099;-84
2024/01/29 02:56:39;;;;;;;45.70;25.20;;;;;;;0.72;100.00;101954.06;178297;1256;45995;-83
2024/01/29 03:00:42;;;;;;;38.80;23.40;;;;;;;0.66;100.00;101955.19;178265;1256;46060;-85
2024/01/29 03:04:46;;;;;;;47.90;21.60;;;;;;;0.64;100.00;101956.97;178114;1257;46034;-85
2024/01/29 03:08:49;;;;;;;37.40;23.10;;;;;;;0.65;100.00;101951.89;177845;1257;58264;-84
2024/01/29 03:12:54;;;;;;;44.50;28.70;;;;;;;0.65;100.00;101950.32;177885;1256;45940;-83
2024/01/29 03:16:59;;;;;;;51.40;28.60;;;;;;;0.66;100.00;101955.02;178236;1259;46021;-84
2024/01/29 03:21:02;;;;;;;59.30;38.20;;;;;;;0.63;100.00;101954.19;177568;1257;46438;-85
2024/01/29 03:25:06;;;;;;;55.20;30.70;;;;;;;0.62;100.00;101947.73;178001;1256;355307;-86
2024/01/29 03:29:09;;;;;;;40.10;22.80;;;;;;;0.60;100.00;101940.96;178749;1256;58858;-86
2024/01/29 03:33:12;;;;;;;38.90;22.40;;;;;;;0.56;100.00;101934.88;178403;1257;46027;-86
2024/01/29 03:37:16;;;;;;;34.70;21.40;;;;;;;0.52;100.00;101933.73;178109;1256;46096;-85
2024/01/29 03:41:19;;;;;;;37.30;21.70;;;;;;;0.50;100.00;101933.58;178194;1259;46438;-85
2024/01/29 03:45:22;;;;;;;45.30;29.20;;;;;;;0.47;100.00;101925.41;177576;1256;46090;-86
2024/01/29 03:49:25;;;;;;;43.80;29.50;;;;;;;0.45;100.00;101919.88;178213;1259;58218;-83
2024/01/29 03:53:29;;;;;;;49.20;29.60;;;;;;;0.43;100.00;101921.80;177948;1257;45916;-85
2024/01/29 03:57:32;;;;;;;64.20;36.10;;;;;;;0.45;100.00;101923.02;178368;1256;45991;-84
2024/01/29 04:01:36;;;;;;;60.70;38.20;;;;;;;0.47;100.00;101914.59;177977;1256;46118;-85
2024/01/29 04:05:39;;;;;;;52.00;28.90;;;;;;;0.51;100.00;101914.38;178287;1258;46994;-85
2024/01/29 04:09:42;;;;;;;40.30;19.80;;;;;;;0.51;100.00;101904.60;178135;1257;59238;-85
2024/01/29 04:13:45;;;;;;;26.20;16.70;;;;;;;0.50;100.00;101889.41;178229;1256;46113;-86
2024/01/29 04:17:49;;;;;;;22.10;16.10;;;;;;;0.48;100.00;101883.67;178137;1257;45946;-85
2024/01/29 04:21:52;;;;;;;27.80;17.20;;;;;;;0.49;100.00;101879.14;177974;1256;46110;-83
2024/01/29 04:25:55;;;;;;;26.20;15.20;;;;;;;0.47;100.00;101876.18;177538;1257;46112;-83
2024/01/29 04:30:00;;;;;;;31.60;16.90;;;;;;;0.42;100.00;101874.52;177621;1259;59859;-83
2024/01/29 04:34:03;;;;;;;25.20;16.20;;;;;;;0.47;100.00;101874.27;177998;1257;44833;-84
2024/01/29 04:38:07;;;;;;;32.70;18.20;;;;;;;0.51;100.00;101872.47;178850;1256;45884;-83
2024/01/29 04:42:11;;;;;;;78.10;36.80;;;;;;;0.55;100.00;101867.50;179011;1256;45948;-84
2024/01/29 04:46:14;;;;;;;50.20;25.20;;;;;;;0.60;100.00;101868.49;179406;1256;46074;-83
2024/01/29 04:50:18;;;;;;;51.00;28.70;;;;;;;0.58;100.00;101867.48;178519;1256;58235;-84
2024/01/29 04:54:21;;;;;;;41.10;23.70;;;;;;;0.65;100.00;101871.39;178077;1260;46089;-83
2024/01/29 04:58:24;;;;;;;33.60;20.70;;;;;;;0.71;100.00;101869.39;177725;1257;44469;-83
2024/01/29 05:02:27;;;;;;;34.60;17.90;;;;;;;0.75;100.00;101871.06;177740;1256;46026;-83
2024/01/29 05:06:31;;;;;;;45.30;19.80;;;;;;;0.78;100.00;101876.08;177822;1256;46250;-83
2024/01/29 05:10:34;;;;;;;35.50;19.00;;;;;;;0.77;100.00;101880.30;178821;1256;58649;-80
2024/01/29 05:14:39;;;;;;;35.50;17.70;;;;;;;0.67;100.00;101882.20;177564;1260;45959;-80
2024/01/29 05:18:42;;;;;;;23.60;15.90;;;;;;;0.67;100.00;101879.56;177990;1258;46262;-81
2024/01/29 05:22:45;;;;;;;30.80;16.10;;;;;;;0.70;100.00;101879.35;177650;1258;45985;-83
2024/01/29 05:26:49;;;;;;;36.40;22.30;;;;;;;0.73;100.00;101881.59;177823;1256;46053;-84
2024/01/29 05:30:52;;;;;;;47.90;31.10;;;;;;;0.78;100.00;101880.64;178085;1256;60724;-82
2024/01/29 05:34:56;;;;;;;49.30;26.40;;;;;;;0.79;100.00;101881.33;178020;1256;46034;-84
2024/01/29 05:38:59;;;;;;;55.70;35.00;;;;;;;0.78;100.00;101878.02;178027;1257;44167;-83
2024/01/29 05:43:02;;;;;;;49.80;30.90;;;;;;;0.79;100.00;101882.55;177800;1260;46133;-85
2024/01/29 05:47:06;;;;;;;36.70;20.10;;;;;;;0.80;100.00;101889.70;177971;1258;46042;-84
2024/01/29 05:51:09;;;;;;;46.50;27.40;;;;;;;0.77;100.00;101889.02;178557;1256;59383;-84
2024/01/29 05:55:12;;;;;;;31.70;19.30;;;;;;;0.74;100.00;101885.05;177852;1256;44400;-84
2024/01/29 05:59:15;;;;;;;35.90;21.40;;;;;;;0.70;100.00;101887.55;178513;1260;46106;-83
2024/01/29 06:03:19;;;;;;;29.20;18.80;;;;;;;0.67;100.00;101883.05;178399;1260;46152;-83
2024/01/29 06:07:22;;;;;;;31.30;17.20;;;;;;;0.65;100.00;101886.76;178143;1256;46064;-84
2024/01/29 06:11:27;;;;;;;32.80;18.30;;;;;;;0.62;100.00;101891.34;177892;1256;59339;-83
2024/01/29 06:15:30;;;;;;;28.70;17.80;;;;;;;0.57;100.00;101892.45;178317;1260;46016;-84
2024/01/29 06:19:33;;;;;;;34.30;22.20;;;;;;;0.53;100.00;101887.80;177953;1259;46078;-83
2024/01/29 06:23:57;;;;;;;37.40;24.30;;;;;;;0.49;100.00;101884.20;178414;1256;46015;-81
2024/01/29 06:28:00;;;;;;;41.50;23.40;;;;;;;0.49;100.00;101887.52;177552;1256;46117;-83
2024/01/29 06:32:03;;;;;;;38.40;23.30;;;;;;;0.48;100.00;101892.23;178308;1259;59499;-83
2024/01/29 06:36:07;;;;;;;36.10;19.80;;;;;;;0.48;100.00;101899.21;178173;1256;46083;-83
2024/01/29 06:40:10;;;;;;;40.80;21.50;;;;;;;0.47;100.00;101895.57;178029;1256;45997;-84
2024/01/29 06:44:13;;;;;;;42.80;23.70;;;;;;;0.51;100.00;101897.09;178358;1256;46112;-83
2024/01/29 06:48:16;;;;;;;30.10;20.50;;;;;;;0.53;100.00;101893.55;177843;1258;46106;-83
2024/01/29 06:52:20;;;;;;;47.40;26.30;;;;;;;0.56;100.00;101894.56;178511;1257;60231;-83
2024/01/29 06:56:23;;;;;;;134.30;119.60;;;;;;;0.64;100.00;101898.66;177893;1256;44385;-83
2024/01/29 07:00:26;;;;;;;78.50;61.40;;;;;;;0.70;100.00;101903.63;178464;1260;46099;-83
2024/01/29 07:04:30;;;;;;;93.70;73.80;;;;;;;0.75;100.00;101906.34;177638;1256;46220;-84
2024/01/29 07:08:33;;;;;;;62.80;55.00;;;;;;;0.82;100.00;101910.45;177489;1256;46064;-83
2024/01/29 07:12:37;;;;;;;38.80;26.10;;;;;;;0.90;100.00;101906.30;178182;1256;58482;-84
2024/01/29 07:16:40;;;;;;;28.20;20.10;;;;;;;0.94;100.00;101905.52;178264;1257;44068;-83
2024/01/29 07:20:45;;;;;;;44.30;25.30;;;;;;;0.94;100.00;101902.55;178238;1262;46033;-83
2024/01/29 07:24:51;;;;;;;46.90;21.70;;;;;;;0.99;100.00;101900.58;177914;1256;45994;-83
2024/01/29 07:28:55;;;;;;;34.30;21.70;;;;;;;1.05;100.00;101897.48;178368;1257;46010;-83
2024/01/29 07:33:01;;;;;;;31.40;18.70;;;;;;;1.11;100.00;101894.45;177980;1256;60314;-83
2024/01/29 07:37:04;;;;;;;46.80;27.20;;;;;;;1.15;100.00;101895.77;177899;1256;45956;-83
2024/01/29 07:41:08;;;;;;;34.30;23.20;;;;;;;1.23;100.00;101893.72;177973;1260;46349;-84
2024/01/29 07:45:12;;;;;;;44.70;27.70;;;;;;;1.33;100.00;101893.20;177460;1256;46115;-83
2024/01/29 07:49:15;;;;;;;45.00;26.80;;;;;;;1.43;100.00;101889.70;177537;1260;46122;-83
2024/01/29 07:53:18;;;;;;;39.90;23.50;;;;;;;1.58;100.00;101890.49;177605;1256;60466;-83
2024/01/29 07:57:21;;;;;;;40.70;25.00;;;;;;;1.74;100.00;101892.30;177767;1258;46262;-83
2024/01/29 08:01:25;;;;;;;42.20;23.50;;;;;;;1.88;100.00;101883.27;177896;1256;46085;-82
2024/01/29 08:05:28;;;;;;;34.00;21.90;;;;;;;2.04;100.00;101883.13;178697;1256;46036;-80
2024/01/29 08:09:32;;;;;;;31.00;20.00;;;;;;;2.22;100.00;101888.71;178352;1256;46091;-81
2024/01/29 08:13:35;;;;;;;34.40;24.10;;;;;;;2.40;100.00;101888.88;178399;1257;59154;-83
2024/01/29 08:17:38;;;;;;;35.60;19.80;;;;;;;2.58;100.00;101883.56;177487;1260;46200;-82
2024/01/29 08:21:41;;;;;;;42.20;22.80;;;;;;;2.77;100.00;101880.85;178621;1259;45959;-82
2024/01/29 08:25:45;;;;;;;40.10;19.50;;;;;;;2.94;99.89;101882.53;177708;1257;45990;-83
2024/01/29 08:29:48;;;;;;;36.60;17.00;;;;;;;3.09;99.42;101877.98;177956;1256;46076;-83
2024/01/29 08:33:51;;;;;;;33.50;19.80;;;;;;;3.20;98.67;101871.21;177903;1259;57681;-83
2024/01/29 08:37:54;;;;;;;31.10;18.10;;;;;;;3.33;98.74;101868.42;178539;1256;46117;-83
2024/01/29 08:41:58;;;;;;;27.40;16.60;;;;;;;3.48;98.03;101870.51;177819;1259;46001;-82
2024/01/29 08:46:01;;;;;;;24.90;16.50;;;;;;;3.65;98.22;101869.35;178505;1256;46079;-82
2024/01/29 08:50:05;;;;;;;30.60;19.20;;;;;;;3.82;97.81;101870.46;177983;1260;46035;-82
2024/01/29 08:54:09;;;;;;;40.70;23.60;;;;;;;3.96;97.18;101875.31;177922;1257;58221;-83
2024/01/29 08:58:12;;;;;;;43.20;19.40;;;;;;;4.11;96.19;101874.74;177946;1257;46007;-82
2024/01/29 09:02:15;;;;;;;28.00;17.90;;;;;;;4.26;95.02;101875.54;178398;1256;45972;-82
2024/01/29 09:06:18;;;;;;;27.70;17.20;;;;;;;4.42;93.11;101873.30;178100;1258;46103;-83
2024/01/29 09:10:22;;;;;;;28.90;16.00;;;;;;;4.54;91.50;101871.88;178300;1257;46615;-82
2024/01/29 09:14:27;;;;;;;28.30;13.80;;;;;;;4.69;91.11;101875.62;178295;1256;59584;-83
2024/01/29 09:18:30;;;;;;;24.10;13.90;;;;;;;4.88;91.65;101873.64;177798;1256;46000;-83
2024/01/29 09:22:33;;;;;;;21.30;12.30;;;;;;;5.10;92.09;101883.09;177844;1257;46428;-83
2024/01/29 09:26:36;;;;;;;23.30;14.10;;;;;;;5.32;91.68;101885.35;178114;1259;46048;-83
2024/01/29 09:30:39;;;;;;;23.20;13.40;;;;;;;5.55;89.66;101878.79;177698;1260;45991;-82
2024/01/29 09:34:45;;;;;;;25.10;12.70;;;;;;;5.76;88.96;101885.06;178295;1256;58221;-83
2024/01/29 09:38:48;;;;;;;20.50;13.00;;;;;;;5.95;90.58;101878.41;178436;1260;46040;-82
2024/01/29 09:42:54;;;;;;;22.00;14.80;;;;;;;6.06;88.76;101878.39;177911;1256;46028;-83
2024/01/29 09:46:58;;;;;;;27.90;14.90;;;;;;;6.17;88.38;101886.95;178098;1256;46020;-82
2024/01/29 09:51:03;;;;;;;28.30;13.10;;;;;;;6.34;89.46;101885.45;177982;1257;45986;-83
2024/01/29 09:55:07;;;;;;;25.30;14.80;;;;;;;6.56;89.22;101881.25;178012;1261;58207;-82
2024/01/29 09:59:10;;;;;;;22.20;10.80;;;;;;;6.81;87.52;101876.21;177633;1259;45912;-82
2024/01/29 10:03:21;;;;;;;37.40;20.20;;;;;;;7.06;86.16;101873.95;177932;1257;46093;-82
2024/01/29 10:07:25;;;;;;;80.90;43.80;;;;;;;7.26;85.50;101875.79;177969;1259;46143;-82
2024/01/29 10:11:29;;;;;;;26.90;14.00;;;;;;;7.44;86.10;101870.23;178249;1260;46115;-83
2024/01/29 10:15:33;;;;;;;22.10;13.70;;;;;;;7.61;86.28;101867.38;178127;1257;57941;-83
2024/01/29 10:19:37;;;;;;;16.10;11.40;;;;;;;7.80;84.87;101866.40;178088;1256;46020;-82
2024/01/29 10:23:41;;;;;;;16.00;10.80;;;;;;;8.00;84.50;101866.58;178813;1259;45984;-83
2024/01/29 10:27:45;;;;;;;22.70;11.20;;;;;;;8.19;84.17;101856.83;177582;1262;46138;-83
2024/01/29 10:31:48;;;;;;;22.50;11.90;;;;;;;8.42;83.90;101859.52;177723;1260;46076;-83
2024/01/29 10:35:51;;;;;;;21.60;12.80;;;;;;;8.64;82.40;101857.27;178076;1258;59710;-83
2024/01/29 10:39:55;;;;;;;12.90;10.10;;;;;;;8.79;78.31;101851.94;178599;1256;46019;-83
2024/01/29 10:44:04;;;;;;;33.10;18.40;;;;;;;9.02;74.69;101850.77;177724;1257;46113;-83
2024/01/29 10:48:26;;;;;;;23.00;14.80;;;;;;;9.25;73.73;101847.71;177973;1256;46089;-83
2024/01/29 10:52:30;;;;;;;21.50;14.90;;;;;;;9.42;72.55;101846.30;178802;1257;46020;-82
2024/01/29 10:56:35;;;;;;;14.10;9.10;;;;;;;9.54;70.99;101837.52;178129;1257;58608;-82
2024/01/29 11:00:40;;;;;;;7.20;4.10;;;;;;;9.76;69.84;101831.79;178557;1259;46543;-83
2024/01/29 11:04:44;;;;;;;7.50;5.20;;;;;;;9.96;65.32;101832.48;178160;1260;45997;-83
2024/01/29 11:08:53;;;;;;;10.40;5.20;;;;;;;10.09;64.17;101827.89;177975;1256;44578;-83
2024/01/29 11:12:57;;;;;;;102.60;47.60;;;;;;;10.19;62.70;101818.48;177785;1259;46058;-83
2024/01/29 11:17:01;;;;;;;12.10;5.00;;;;;;;10.22;59.66;101814.77;177981;1261;58061;-83
2024/01/29 11:21:10;;;;;;;66.50;41.10;;;;;;;10.24;56.92;101811.42;178386;1256;46024;-83
2024/01/29 11:25:14;;;;;;;36.30;22.90;;;;;;;10.33;58.50;101810.26;177979;1260;44454;-83
2024/01/29 11:29:19;;;;;;;52.60;30.10;;;;;;;10.39;57.86;101807.39;177709;1260;46157;-83
2024/01/29 11:33:22;;;;;;;63.10;38.80;;;;;;;10.38;57.45;101803.39;178798;1258;45993;-83
2024/01/29 11:37:28;;;;;;;24.90;14.80;;;;;;;10.39;58.48;101800.85;178336;1260;57566;-82
2024/01/29 11:41:33;;;;;;;9.60;5.90;;;;;;;10.43;57.39;101791.58;178399;1257;46454;-82
2024/01/29 11:45:36;;;;;;;7.50;4.10;;;;;;;10.52;58.41;101793.42;179673;1258;45028;-83
2024/01/29 11:49:39;;;;;;;15.50;6.40;;;;;;;10.62;58.45;101782.55;178333;1257;46117;-82
2024/01/29 11:53:51;;;;;;;7.20;3.20;;;;;;;10.70;58.94;101769.66;177672;1260;44841;-82
2024/01/29 11:57:54;;;;;;;6.10;2.40;;;;;;;10.76;55.83;101768.96;178217;1257;58288;-82
2024/01/29 12:01:58;;;;;;;58.40;31.90;;;;;;;10.83;56.36;101766.58;178000;1261;46262;-82
2024/01/29 12:06:01;;;;;;;36.70;21.30;;;;;;;10.90;56.08;101759.45;178108;1260;47640;-82
2024/01/29 12:10:05;;;;;;;49.70;31.10;;;;;;;10.98;54.03;101753.11;177977;1260;46083;-82
2024/01/29 12:14:08;;;;;;;22.80;15.60;;;;;;;11.04;53.01;101750.45;178603;1260;45989;-83
2024/01/29 12:18:22;;;;;;;10.20;6.50;;;;;;;11.08;53.08;101744.52;178427;1258;58822;-82
2024/01/29 12:22:25;;;;;;;5.10;3.10;;;;;;;11.13;52.18;101739.28;178029;1257;46067;-82
2024/01/29 12:26:29;;;;;;;6.80;4.40;;;;;;;11.20;53.93;101741.89;177577;1263;46213;-82
2024/01/29 12:30:33;;;;;;;9.20;4.70;;;;;;;11.25;55.22;101736.42;177896;1257;46131;-82
2024/01/29 12:34:48;;;;;;;4.90;3.30;;;;;;;11.26;53.95;101736.53;178175;1257;46001;-83
2024/01/29 12:38:53;;;;;;;5.20;4.30;;;;;;;11.31;54.13;101733.01;178640;1257;58188;-82
2024/01/29 12:43:02;;;;;;;6.80;2.80;;;;;;;11.31;54.82;101726.61;178042;1257;45975;-82
2024/01/29 12:47:12;;;;;;;3.10;2.70;;;;;;;11.34;54.46;101727.86;179161;1261;46658;-82
2024/01/29 12:51:15;;;;;;;3.80;2.80;;;;;;;11.39;54.56;101727.94;178830;1261;44040;-82
2024/01/29 12:55:19;;;;;;;4.30;2.50;;;;;;;11.33;51.75;101723.10;178094;1257;46082;-82
2024/01/29 12:59:22;;;;;;;8.30;3.90;;;;;;;11.40;51.99;101720.41;177849;1261;58298;-82
2024/01/29 13:03:25;;;;;;;18.40;9.10;;;;;;;11.37;50.31;101718.63;178473;1257;46134;-83
2024/01/29 13:07:32;;;;;;;66.80;31.10;;;;;;;11.31;50.55;101711.86;178257;1257;45976;-83
2024/01/29 13:11:35;;;;;;;111.80;58.00;;;;;;;11.36;51.87;101716.04;177873;1261;46103;-83
2024/01/29 13:15:39;;;;;;;184.20;88.80;;;;;;;11.31;53.26;101712.63;177671;1262;46449;-83
2024/01/29 13:19:45;;;;;;;52.90;25.10;;;;;;;11.28;54.10;101715.25;177534;1257;60612;-83
2024/01/29 13:23:48;;;;;;;60.50;28.90;;;;;;;11.27;56.35;101716.19;177564;1257;46009;-82
2024/01/29 13:27:55;;;;;;;40.90;19.00;;;;;;;11.25;55.06;101718.64;178566;1257;46089;-83
2024/01/29 13:31:59;;;;;;;23.70;14.40;;;;;;;11.26;53.38;101707.38;178091;1257;46051;-83
2024/01/29 13:36:03;;;;;;;27.10;16.60;;;;;;;11.22;56.82;101705.52;177940;1256;46108;-83
2024/01/29 13:40:07;;;;;;;10.00;7.30;;;;;;;11.13;56.31;101702.31;177831;1257;58229;-83
2024/01/29 13:44:11;;;;;;;9.10;7.10;;;;;;;11.11;56.85;101699.23;177958;1262;44139;-83
2024/01/29 13:48:14;;;;;;;11.80;5.50;;;;;;;11.08;56.87;101700.49;177693;1260;46133;-83
2024/01/29 13:52:20;;;;;;;6.00;3.90;;;;;;;11.05;56.48;101693.97;177727;1256;46123;-83
2024/01/29 13:56:23;;;;;;;10.80;6.30;;;;;;;10.96;56.98;101692.00;177700;1256;46115;-83
2024/01/29 14:00:27;;;;;;;9.00;4.70;;;;;;;10.82;57.35;101682.36;177472;1257;59456;-83
2024/01/29 14:04:31;;;;;;;8.20;5.60;;;;;;;10.76;58.45;101687.70;178337;1258;46141;-83
2024/01/29 14:08:34;;;;;;;10.10;5.80;;;;;;;10.70;60.01;101694.08;177878;1257;46035;-83
2024/01/29 14:12:38;;;;;;;13.40;5.90;;;;;;;10.64;59.68;101693.93;178305;1257;46027;-83
2024/01/29 14:16:41;;;;;;;11.60;8.30;;;;;;;10.63;60.06;101695.90;177791;1257;46031;-84
2024/01/29 14:20:44;;;;;;;12.20;7.20;;;;;;;10.63;60.62;101695.72;178271;1256;58227;-83
2024/01/29 14:24:47;;;;;;;13.70;7.20;;;;;;;10.58;61.49;101696.73;178055;1257;46105;-82
2024/01/29 14:28:50;;;;;;;12.30;8.00;;;;;;;10.47;62.25;101696.16;177775;1256;46137;-84
2024/01/29 14:32:53;;;;;;;12.10;8.80;;;;;;;10.39;63.54;101697.66;178033;1257;46027;-83
2024/01/29 14:36:57;;;;;;;17.70;8.70;;;;;;;10.29;63.57;101700.86;178682;1257;46003;-84
2024/01/29 14:41:00;;;;;;;14.10;9.50;;;;;;;10.28;63.13;101711.40;177854;1257;59371;-84
2024/01/29 14:45:05;;;;;;;24.10;12.90;;;;;;;10.29;63.79;101714.36;178267;1257;46192;-85
2024/01/29 14:49:10;;;;;;;12.90;9.70;;;;;;;10.25;64.07;101714.60;178212;1256;46127;-85
2024/01/29 14:53:13;;;;;;;20.40;9.70;;;;;;;10.13;63.55;101710.29;179030;1257;46056;-84
2024/01/29 14:57:17;;;;;;;27.60;15.90;;;;;;;10.09;62.97;101710.37;178047;1256;45992;-84
2024/01/29 15:01:21;;;;;;;22.10;14.10;;;;;;;10.01;62.53;101717.36;178336;1257;60000;-84
2024/01/29 15:05:24;;;;;;;25.20;15.50;;;;;;;9.91;62.79;101720.05;179776;1256;45974;-82
2024/01/29 15:09:30;;;;;;;31.50;18.20;;;;;;;9.71;63.33;101710.50;178438;1256;46093;-85
2024/01/29 15:13:33;;;;;;;32.80;15.90;;;;;;;9.55;63.66;101704.48;177851;1257;44398;-83
2024/01/29 15:17:36;;;;;;;20.70;10.90;;;;;;;9.40;64.14;101706.20;178536;1257;46044;-84
2024/01/29 15:21:40;;;;;;;22.20;13.60;;;;;;;9.20;64.45;101713.77;178250;1260;59223;-84
2024/01/29 15:25:44;;;;;;;30.80;16.10;;;;;;;8.93;65.04;101713.92;178222;1256;240603;-84
2024/01/29 15:29:47;;;;;;;28.30;18.60;;;;;;;8.66;66.34;101711.95;178061;1256;46140;-84
2024/01/29 15:33:50;;;;;;;32.20;21.80;;;;;;;8.33;68.10;101714.64;178720;1256;46118;-83
2024/01/29 15:37:55;;;;;;;24.80;15.80;;;;;;;8.06;68.76;101716.98;178636;1257;46038;-83
2024/01/29 15:41:58;;;;;;;19.80;11.60;;;;;;;7.83;68.85;101723.70;178013;1257;58546;-85
2024/01/29 15:46:02;;;;;;;26.80;12.90;;;;;;;7.62;69.56;101725.04;178427;1256;46002;-84
2024/01/29 15:50:07;;;;;;;19.80;11.60;;;;;;;7.50;69.69;101727.36;178216;1257;46066;-84
2024/01/29 15:54:11;;;;;;;24.30;14.30;;;;;;;7.35;69.96;101730.33;178818;1257;45989;-84
2024/01/29 15:58:14;;;;;;;32.90;19.30;;;;;;;7.21;69.83;101735.88;178093;1260;46099;-84
2024/01/29 16:02:17;;;;;;;51.90;33.70;;;;;;;7.08;69.86;101739.62;178264;1256;58048;-84
2024/01/29 16:06:21;;;;;;;49.70;32.40;;;;;;;6.94;70.54;101734.77;178046;1258;45981;-83
2024/01/29 16:10:24;;;;;;;54.00;33.30;;;;;;;6.82;70.40;101736.48;177933;1256;45953;-84
2024/01/29 16:14:27;;;;;;;45.10;23.00;;;;;;;6.73;70.52;101734.60;178408;1257;45988;-84
2024/01/29 16:18:31;;;;;;;45.80;27.30;;;;;;;6.56;71.55;101735.67;178076;1256;46133;-84
2024/01/29 16:22:34;;;;;;;52.90;28.10;;;;;;;6.50;71.13;101741.19;177982;1256;58240;-84
2024/01/29 16:26:38;;;;;;;43.20;28.50;;;;;;;6.42;70.98;101741.34;177875;1257;46110;-84
2024/01/29 16:30:42;;;;;;;32.70;22.80;;;;;;;6.26;71.80;101742.52;178423;1256;45986;-84
2024/01/29 16:34:46;;;;;;;56.40;34.10;;;;;;;6.10;73.22;101742.98;177936;1256;44751;-85
2024/01/29 16:38:51;;;;;;;58.40;33.00;;;;;;;5.96;73.83;101746.85;178272;1257;46072;-83
2024/01/29 16:42:55;;;;;;;73.60;42.90;;;;;;;5.83;73.45;101744.52;178024;1257;58092;-84
2024/01/29 16:46:58;;;;;;;63.70;38.10;;;;;;;5.78;73.30;101747.70;178664;1256;45989;-84
2024/01/29 16:51:01;;;;;;;53.40;31.80;;;;;;;5.76;73.37;101757.43;178311;1256;46125;-83
2024/01/29 16:55:04;;;;;;;65.80;29.10;;;;;;;5.72;73.24;101763.05;178313;1257;45931;-82
2024/01/29 16:59:09;;;;;;;44.20;25.80;;;;;;;5.67;73.40;101763.93;178234;1256;46092;-83
2024/01/29 17:03:13;;;;;;;73.00;38.30;;;;;;;5.66;73.22;101761.87;178387;1256;57436;-84
2024/01/29 17:07:17;;;;;;;61.70;34.10;;;;;;;5.66;73.37;101768.91;179177;1256;46327;-83
2024/01/29 17:11:20;;;;;;;87.60;53.40;;;;;;;5.62;73.48;101768.70;178406;1259;45999;-82
2024/01/29 17:15:23;;;;;;;70.30;42.90;;;;;;;5.52;74.84;101760.08;178016;1257;46769;-82
2024/01/29 17:19:27;;;;;;;122.90;72.00;;;;;;;5.29;76.38;101754.60;178563;1257;45969;-84
2024/01/29 17:23:30;;;;;;;53.80;31.80;;;;;;;5.12;76.97;101745.69;178310;1256;58265;-84
2024/01/29 17:27:34;;;;;;;38.50;27.10;;;;;;;5.09;77.05;101740.88;178126;1255;45993;-85
2024/01/29 17:31:38;;;;;;;43.10;25.80;;;;;;;5.02;77.36;101736.02;178947;1259;44102;-82
2024/01/29 17:35:41;;;;;;;62.40;35.30;;;;;;;4.98;77.61;101732.27;178717;1256;44611;-83
2024/01/29 17:39:44;;;;;;;49.10;31.90;;;;;;;4.97;77.75;101728.10;178303;1256;45999;-82
2024/01/29 17:43:48;;;;;;;121.10;70.80;;;;;;;4.97;77.54;101722.66;178797;1258;59705;-82
2024/01/29 17:47:52;;;;;;;161.00;91.20;;;;;;;4.97;77.62;101725.63;178740;1257;46089;-82
2024/01/29 17:51:56;;;;;;;132.50;80.30;;;;;;;4.99;77.72;101731.91;178635;1257;46179;-83
2024/01/29 17:55:59;;;;;;;57.60;33.10;;;;;;;4.99;78.16;101735.41;178237;1256;46102;-82
2024/01/29 18:00:05;;;;;;;37.80;21.90;;;;;;;4.85;79.03;101731.86;178472;1260;46046;-83
2024/01/29 18:04:08;;;;;;;31.50;19.20;;;;;;;4.77;79.53;101733.72;178838;1257;58300;-82
2024/01/29 18:08:11;;;;;;;39.70;19.40;;;;;;;4.68;80.50;101740.85;178014;1256;46118;-83
2024/01/29 18:12:14;;;;;;;24.50;16.50;;;;;;;4.60;80.98;101741.48;179824;1256;44073;-82
2024/01/29 18:16:18;;;;;;;32.40;18.80;;;;;;;4.54;81.08;101745.02;178234;1257;46089;-84
2024/01/29 18:20:21;;;;;;;35.40;21.10;;;;;;;4.48;81.40;101746.29;178011;1256;44719;-82